Time;durP1;ratioP1;P1;durP2;ratioP2;P2;SDS_P1;SDS_P2;PMS_P1;PMS_P2;Temp;Humidity;BMP_temperature;BMP_pressure;BME280_temperature;BME280_humidity;BME280_pressure;Samples;Min_cycle;Max_cycle;Signal;HPM_P1;HPM_P2
2021/07/22 00:00:25;;;;;;;;;18.25;14.50;;;;;27.14;37.95;101386.44;5021985;28;45597;-80
2021/07/22 00:02:51;;;;;;;;;17.00;15.75;;;;;27.06;37.67;101383.91;5022652;28;45574;-81
2021/07/22 00:05:17;;;;;;;;;16.75;15.75;;;;;27.07;37.93;101388.25;5020339;28;46618;-79
2021/07/22 00:07:45;;;;;;;;;16.75;15.00;;;;;27.10;37.38;101402.13;5016213;28;46045;-80
2021/07/22 00:10:12;;;;;;;;;15.00;13.50;;;;;27.05;37.85;101399.22;5015909;28;45612;-80
2021/07/22 00:12:38;;;;;;;;;15.75;15.25;;;;;26.97;38.09;101391.31;5015954;28;45527;-80
2021/07/22 00:15:05;;;;;;;;;16.00;15.00;;;;;26.99;38.16;101393.81;5015737;28;46116;-80
2021/07/22 00:17:31;;;;;;;;;15.25;14.50;;;;;26.87;37.79;101376.50;5015625;28;46587;-80
2021/07/22 00:19:57;;;;;;;;;16.25;15.50;;;;;26.93;37.90;101392.72;5015661;28;45705;-80
2021/07/22 00:22:22;;;;;;;;;15.00;14.00;;;;;26.81;38.09;101374.59;5015844;28;45703;-80
2021/07/22 00:24:48;;;;;;;;;17.50;15.75;;;;;26.75;38.29;101370.84;5015561;28;45574;-79
2021/07/22 00:27:15;;;;;;;;;13.75;12.25;;;;;26.76;38.04;101380.56;5015621;28;45646;-80
2021/07/22 00:29:41;;;;;;;;;16.50;15.00;;;;;26.81;37.98;101388.06;5015606;28;45641;-81
2021/07/22 00:32:06;;;;;;;;;15.00;14.25;;;;;26.77;38.73;101401.06;5015641;28;45678;-79
2021/07/22 00:34:32;;;;;;;;;15.75;15.00;;;;;26.70;38.69;101394.81;5015383;28;46376;-79
2021/07/22 00:36:57;;;;;;;;;16.50;13.50;;;;;26.74;38.40;101402.28;5015348;28;46284;-80
2021/07/22 00:39:23;;;;;;;;;15.75;15.25;;;;;26.71;38.68;101402.69;5015496;28;45555;-80
2021/07/22 00:41:48;;;;;;;;;15.75;15.75;;;;;26.69;38.46;101402.03;5015526;28;45688;-80
2021/07/22 00:44:13;;;;;;;;;17.00;14.50;;;;;26.52;38.86;101381.00;5015285;28;46552;-79
2021/07/22 00:50:00;;;;;;;;;14.00;13.75;;;;;26.62;38.97;101403.81;5003809;28;45647;-79
2021/07/22 00:52:26;;;;;;;;;17.25;13.50;;;;;26.60;38.94;101410.44;5015388;28;45949;-79
2021/07/22 00:54:51;;;;;;;;;13.25;12.50;;;;;26.56;39.00;101398.41;5014495;28;45663;-79
2021/07/22 00:57:17;;;;;;;;;18.00;16.25;;;;;26.53;38.80;101398.78;4997063;28;46378;-80
2021/07/22 00:59:42;;;;;;;;;15.25;13.75;;;;;26.50;39.16;101399.19;5015323;28;45493;-80
2021/07/22 01:02:07;;;;;;;;;17.75;15.75;;;;;26.46;38.90;101395.19;5014751;28;45572;-80
2021/07/22 01:04:33;;;;;;;;;17.25;15.50;;;;;26.41;38.93;101401.16;5015203;28;45874;-80
2021/07/22 01:06:59;;;;;;;;;16.00;15.00;;;;;26.44;39.10;101405.34;5014640;28;47114;-80
2021/07/22 01:09:25;;;;;;;;;20.50;17.00;;;;;26.38;39.42;101406.09;5015260;28;45743;-80
2021/07/22 01:11:50;;;;;;;;;10.75;10.25;;;;;26.41;39.23;101411.91;5015201;28;45571;-80
2021/07/22 01:14:15;;;;;;;;;14.00;13.75;;;;;26.27;39.37;101384.09;5015047;28;46640;-80
2021/07/22 01:20:07;;;;;;;;;18.75;15.25;;;;;26.31;39.91;101400.66;5020947;28;45825;-79
2021/07/22 01:22:33;;;;;;;;;16.50;15.50;;;;;26.29;39.91;101400.84;5019067;28;45615;-79
2021/07/22 01:24:58;;;;;;;;;16.75;14.50;;;;;26.24;39.88;101399.75;5015867;28;46276;-79
2021/07/22 01:27:24;;;;;;;;;16.50;16.25;;;;;26.12;39.86;101388.69;4997248;28;46034;-79
2021/07/22 01:29:51;;;;;;;;;15.25;15.25;;;;;26.21;39.84;101408.19;5015116;28;45625;-80
2021/07/22 01:35:38;;;;;;;;;19.00;15.50;;;;;26.13;40.27;101402.91;5014604;28;45717;-80
2021/07/22 01:38:03;;;;;;;;;16.75;14.50;;;;;26.09;39.90;101402.47;5015506;28;45980;-80
2021/07/22 01:40:29;;;;;;;;;16.50;16.00;;;;;26.11;40.20;101407.66;5015212;28;45713;-80
2021/07/22 01:42:54;;;;;;;;;15.75;14.50;;;;;25.83;40.30;101364.59;5015131;28;45712;-80
2021/07/22 01:45:20;;;;;;;;;17.50;16.75;;;;;26.06;40.29;101402.03;5013233;28;46668;-79
2021/07/22 01:47:46;;;;;;;;;17.00;14.75;;;;;26.00;40.45;101394.75;5015143;28;46210;-79
2021/07/22 01:50:12;;;;;;;;;19.50;15.25;;;;;26.01;40.54;101405.31;5014694;28;45551;-80
2021/07/22 01:52:38;;;;;;;;;18.00;17.25;;;;;25.96;40.57;101401.53;4996992;28;45851;-79
2021/07/22 01:55:04;;;;;;;;;15.75;14.25;;;;;25.95;40.44;101402.53;5014378;28;46241;-80
2021/07/22 01:57:29;;;;;;;;;18.00;15.25;;;;;25.97;40.43;101400.47;5014770;28;45630;-79
2021/07/22 01:59:59;;;;;;;;;14.50;14.50;;;;;25.96;40.46;101393.47;5015026;28;45653;-80
2021/07/22 02:05:46;;;;;;;;;20.50;16.75;;;;;25.92;40.50;101401.06;5014665;28;45739;-80
2021/07/22 02:08:11;;;;;;;;;15.50;15.00;;;;;25.89;40.74;101398.75;5014767;28;46090;-80
2021/07/22 02:10:37;;;;;;;;;16.50;15.50;;;;;25.77;41.04;101379.63;5015062;28;45645;-79
2021/07/22 02:13:02;;;;;;;;;16.25;14.75;;;;;25.88;40.49;101389.88;5014537;28;45576;-79
2021/07/22 02:15:27;;;;;;;;;17.00;15.75;;;;;25.78;40.53;101381.28;5014376;28;45577;-80
2021/07/22 02:17:53;;;;;;;;;15.75;12.75;;;;;25.85;40.89;101392.09;5014694;28;45574;-79
2021/07/22 02:20:18;;;;;;;;;14.75;14.75;;;;;25.72;40.44;101373.97;5014680;28;45699;-79
2021/07/22 02:22:44;;;;;;;;;15.25;13.50;;;;;25.83;40.63;101394.97;5014496;28;45677;-80
2021/07/22 02:25:10;;;;;;;;;18.25;15.75;;;;;25.78;41.04;101389.34;5014262;28;45506;-81
2021/07/22 02:27:35;;;;;;;;;16.00;15.25;;;;;25.77;41.20;101384.16;5014857;28;45980;-80
2021/07/22 02:30:04;;;;;;;;;14.75;14.00;;;;;25.73;41.12;101381.03;5015674;28;45561;-79
2021/07/22 02:35:51;;;;;;;;;14.50;14.50;;;;;25.65;40.92;101394.53;5022289;28;45934;-80
2021/07/22 02:38:16;;;;;;;;;18.50;16.50;;;;;25.64;41.06;101394.75;5023830;28;45775;-80
2021/07/22 02:40:42;;;;;;;;;17.00;16.75;;;;;25.55;41.11;101383.25;5024076;28;45512;-81
2021/07/22 02:43:07;;;;;;;;;17.75;15.50;;;;;25.58;41.11;101392.81;5003427;28;45763;-81
2021/07/22 02:45:32;;;;;;;;;16.25;15.75;;;;;25.51;41.23;101381.97;5017665;28;45488;-80
2021/07/22 02:51:19;;;;;;;;;16.00;16.00;;;;;25.42;41.27;101391.97;5006136;28;45833;-81
2021/07/22 02:53:45;;;;;;;;;15.50;15.00;;;;;25.38;41.48;101396.03;5017114;28;45582;-81
2021/07/22 02:56:10;;;;;;;;;16.75;14.50;;;;;25.30;41.41;101384.56;4999519;28;47780;-80
2021/07/22 02:58:35;;;;;;;;;16.00;16.00;;;;;25.29;41.54;101393.63;5017452;28;46534;-80
2021/07/22 03:01:01;;;;;;;;;18.00;15.25;;;;;25.28;41.22;101390.13;5017865;28;45516;-79
2021/07/22 03:03:27;;;;;;;;;16.25;16.00;;;;;25.23;41.79;101389.84;5018280;28;45704;-81
2021/07/22 03:05:52;;;;;;;;;22.00;18.50;;;;;25.22;41.64;101385.50;5018119;28;46338;-82
2021/07/22 03:08:18;;;;;;;;;17.75;16.00;;;;;25.21;41.85;101391.06;5018695;28;46397;-80
2021/07/22 03:10:43;;;;;;;;;18.00;16.25;;;;;25.19;41.62;101393.91;5018684;28;45634;-81
2021/07/22 03:13:08;;;;;;;;;16.00;15.25;;;;;25.18;41.71;101394.09;5018611;28;45562;-80
2021/07/22 03:15:34;;;;;;;;;16.25;14.25;;;;;25.17;42.07;101403.16;5018745;28;45862;-80
2021/07/22 03:21:21;;;;;;;;;19.75;16.00;;;;;25.04;41.79;101388.56;5018278;28;45533;-80
2021/07/22 03:23:47;;;;;;;;;17.00;16.00;;;;;24.99;41.72;101379.41;5019674;28;45507;-80
2021/07/22 03:26:18;;;;;;;;;19.00;17.75;;;;;25.09;41.70;101398.72;5020319;28;45602;-79
2021/07/22 03:28:44;;;;;;;;;17.00;15.50;;;;;25.07;41.82;101396.22;5019497;28;46014;-81
2021/07/22 03:31:10;;;;;;;;;19.00;16.75;;;;;24.94;41.86;101379.94;5017711;28;45732;-80
2021/07/22 03:33:36;;;;;;;;;16.75;15.00;;;;;25.03;41.75;101396.78;5017342;28;45513;-79
2021/07/22 03:36:05;;;;;;;;;18.50;16.50;;;;;24.91;41.87;101376.78;4998389;28;45564;-78
2021/07/22 03:38:31;;;;;;;;;16.00;16.00;;;;;24.92;41.95;101387.34;5016945;28;46002;-80
2021/07/22 03:40:56;;;;;;;;;17.25;16.25;;;;;24.94;42.14;101389.84;5016494;28;45739;-80
2021/07/22 03:43:22;;;;;;;;;16.00;15.50;;;;;24.97;42.28;101403.72;5017196;28;45738;-80
2021/07/22 03:45:47;;;;;;;;;17.25;17.00;;;;;24.93;42.01;101399.75;4998776;28;47362;-80
2021/07/22 03:51:35;;;;;;;;;17.75;16.00;;;;;24.87;42.61;101395.06;5014002;28;45553;-80
2021/07/22 03:54:00;;;;;;;;;18.25;17.25;;;;;24.71;42.08;101371.09;5016893;28;45635;-80
2021/07/22 03:56:26;;;;;;;;;19.25;18.00;;;;;24.82;42.13;101394.78;5016447;28;45508;-79
2021/07/22 03:58:54;;;;;;;;;18.50;17.50;;;;;24.67;42.62;101362.56;5016990;28;46475;-80
2021/07/22 04:01:19;;;;;;;;;18.50;16.00;;;;;24.77;42.40;101388.31;5016919;28;45639;-79
2021/07/22 04:03:45;;;;;;;;;15.50;15.00;;;;;24.73;43.05;101395.03;5016828;28;45583;-79
2021/07/22 04:06:11;;;;;;;;;17.50;16.50;;;;;24.70;42.98;101393.56;5021363;28;46476;-79
2021/07/22 04:08:37;;;;;;;;;18.25;16.00;;;;;24.63;42.72;101388.09;5023302;28;45893;-81
2021/07/22 04:11:02;;;;;;;;;21.00;19.50;;;;;24.63;42.92;101393.44;5023194;28;45572;-80
2021/07/22 04:13:27;;;;;;;;;19.00;16.75;;;;;24.59;43.09;101388.63;5021222;28;45567;-78
2021/07/22 04:15:53;;;;;;;;;20.75;18.50;;;;;24.58;42.89;101392.31;5016183;28;45589;-82
2021/07/22 04:21:40;;;;;;;;;21.75;20.50;;;;;24.47;42.86;101382.03;5016037;28;45719;-82
2021/07/22 04:24:05;;;;;;;;;18.00;17.50;;;;;24.48;43.02;101392.56;5016327;28;45551;-80
2021/07/22 04:26:31;;;;;;;;;18.00;17.50;;;;;24.51;43.37;101402.91;5016322;28;45530;-79
2021/07/22 04:28:56;;;;;;;;;17.75;16.00;;;;;24.48;42.96;101402.47;5016058;28;45551;-80
2021/07/22 04:31:21;;;;;;;;;19.50;17.00;;;;;24.46;42.88;101399.94;5016280;28;45574;-80
2021/07/22 04:37:09;;;;;;;;;17.00;15.75;;;;;24.37;43.44;101406.41;5015505;28;45642;-80
2021/07/22 04:39:35;;;;;;;;;19.25;16.50;;;;;24.38;43.25;101410.75;5015888;28;45579;-80
2021/07/22 04:42:00;;;;;;;;;22.50;18.50;;;;;24.38;43.03;101407.22;5015612;28;45477;-79
2021/07/22 04:44:26;;;;;;;;;19.50;17.50;;;;;24.34;43.52;101412.13;5015700;28;45708;-79
2021/07/22 04:46:53;;;;;;;;;15.25;15.25;;;;;24.29;43.75;101401.13;5015689;28;45660;-80
2021/07/22 04:49:18;;;;;;;;;19.25;17.50;;;;;24.33;43.22;101417.66;5015630;28;45958;-80
2021/07/22 04:51:43;;;;;;;;;19.00;18.00;;;;;24.18;43.38;101393.50;5015552;28;45441;-80
2021/07/22 04:54:09;;;;;;;;;19.25;18.50;;;;;24.26;43.86;101409.50;5014858;28;45929;-80
2021/07/22 04:56:34;;;;;;;;;16.75;15.25;;;;;24.17;43.54;101408.72;5015700;28;45569;-80
2021/07/22 04:58:59;;;;;;;;;20.75;19.00;;;;;24.22;43.60;101427.78;5015412;28;45659;-80
2021/07/22 05:01:25;;;;;;;;;16.50;16.50;;;;;24.17;43.79;101418.56;5015579;28;45692;-80
2021/07/22 05:07:12;;;;;;;;;22.50;19.50;;;;;24.21;44.10;101422.59;5015012;28;45484;-79
2021/07/22 05:09:38;;;;;;;;;22.25;20.75;;;;;24.17;43.61;101421.25;5015846;28;45670;-81
2021/07/22 05:12:04;;;;;;;;;18.25;17.50;;;;;24.21;43.56;101427.94;4997460;28;45916;-81
2021/07/22 05:14:30;;;;;;;;;21.75;17.50;;;;;24.14;43.26;101417.06;5015017;28;46017;-80
2021/07/22 05:16:56;;;;;;;;;20.00;18.75;;;;;24.16;43.50;101419.56;5015008;28;46274;-80
2021/07/22 05:19:21;;;;;;;;;19.75;18.25;;;;;24.22;43.38;101426.94;5015167;28;46439;-81
2021/07/22 05:21:47;;;;;;;;;17.50;16.00;;;;;24.26;43.40;101436.28;5015410;28;45569;-80
2021/07/22 05:24:12;;;;;;;;;20.25;19.25;;;;;24.21;43.59;101417.22;5015501;28;45532;-80
2021/07/22 05:26:37;;;;;;;;;23.25;19.25;;;;;24.23;43.31;101424.09;4997153;28;46708;-81
2021/07/22 05:29:06;;;;;;;;;20.00;18.00;;;;;24.29;43.63;101430.59;4997346;28;47066;-81
2021/07/22 05:31:31;;;;;;;;;20.00;17.50;;;;;24.17;44.19;101416.75;5015178;28;45849;-79
2021/07/22 05:37:18;;;;;;;;;22.50;19.50;;;;;24.30;43.85;101436.75;5018040;28;45599;-82
2021/07/22 05:39:44;;;;;;;;;19.50;17.25;;;;;24.29;43.85;101432.44;5022095;28;45636;-79
2021/07/22 05:42:09;;;;;;;;;21.00;20.00;;;;;24.21;44.01;101412.72;5021269;28;45635;-79
2021/07/22 05:44:34;;;;;;;;;20.25;18.50;;;;;24.28;43.97;101428.06;5019077;28;45638;-80
2021/07/22 05:47:00;;;;;;;;;19.25;18.50;;;;;24.27;43.54;101431.75;5016702;28;45709;-80
2021/07/22 05:52:47;;;;;;;;;23.00;20.25;;;;;24.23;43.70;101428.63;5003267;28;45872;-80
2021/07/22 05:55:12;;;;;;;;;23.00;21.25;;;;;24.19;44.33;101421.91;5015095;28;45666;-81
2021/07/22 05:57:37;;;;;;;;;22.25;22.25;;;;;24.23;43.80;101429.44;5015026;28;45519;-81
2021/07/22 06:00:07;;;;;;;;;19.00;17.00;;;;;24.24;44.35;101424.91;5014786;28;45611;-81
2021/07/22 06:02:32;;;;;;;;;21.25;19.00;;;;;24.17;43.99;101416.75;5014459;28;45546;-81
2021/07/22 06:05:00;;;;;;;;;17.75;16.75;;;;;24.21;44.02;101426.09;5017956;28;45866;-79
2021/07/22 06:07:25;;;;;;;;;19.75;18.25;;;;;24.21;43.74;101430.63;5003227;28;47652;-81
2021/07/22 06:09:51;;;;;;;;;20.25;19.50;;;;;24.20;44.37;101432.47;5021245;28;46290;-81
2021/07/22 06:12:16;;;;;;;;;21.25;19.00;;;;;24.17;44.18;101423.94;5021103;28;45588;-81
2021/07/22 06:14:42;;;;;;;;;21.75;19.75;;;;;24.14;44.38;101429.63;5021240;28;45528;-80
2021/07/22 06:17:07;;;;;;;;;18.25;17.25;;;;;24.19;44.47;101429.94;5021092;28;46468;-80
2021/07/22 06:22:55;;;;;;;;;21.50;20.25;;;;;24.16;44.09;101428.44;5020779;28;45761;-80
2021/07/22 06:25:20;;;;;;;;;21.75;19.50;;;;;24.16;44.27;101428.44;5021225;28;45751;-80
2021/07/22 06:27:45;;;;;;;;;17.75;17.00;;;;;24.19;44.03;101425.44;5021055;28;45520;-80
2021/07/22 06:30:12;;;;;;;;;21.00;17.75;;;;;24.16;43.84;101417.72;5022018;28;45472;-76
2021/07/22 06:32:37;;;;;;;;;22.25;20.75;;;;;24.18;43.99;101422.97;5021968;28;45743;-75
2021/07/22 06:35:03;;;;;;;;;18.50;18.00;;;;;24.18;44.08;101426.44;5021414;28;45582;-75
2021/07/22 06:37:29;;;;;;;;;20.50;18.25;;;;;24.18;44.32;101426.44;5021368;28;46459;-73
2021/07/22 06:39:54;;;;;;;;;18.75;17.75;;;;;24.18;43.79;101423.75;5019899;28;46052;-75
2021/07/22 06:42:20;;;;;;;;;23.00;18.50;;;;;24.18;44.12;101425.63;5020114;28;45690;-74
2021/07/22 06:44:51;;;;;;;;;20.50;19.00;;;;;24.18;44.06;101429.13;5020119;28;45702;-76
2021/07/22 06:47:16;;;;;;;;;21.25;19.00;;;;;24.22;43.84;101425.09;5020194;28;46702;-74
2021/07/22 06:53:04;;;;;;;;;21.50;19.25;;;;;24.24;43.57;101422.22;5016406;28;45520;-75
2021/07/22 06:55:32;;;;;;;;;22.75;21.00;;;;;24.21;43.88;101415.38;5018288;28;45790;-74
2021/07/22 06:58:08;;;;;;;;;20.00;18.75;;;;;24.27;43.63;101429.91;5019706;28;45607;-75
2021/07/22 07:00:35;;;;;;;;;22.50;21.00;;;;;24.30;43.56;101431.38;5019822;28;46141;-81
2021/07/22 07:03:05;;;;;;;;;19.50;19.50;;;;;24.31;43.91;101430.38;5019626;28;45767;-78
2021/07/22 07:05:31;;;;;;;;;21.25;19.75;;;;;24.29;43.46;101421.72;5019589;28;45788;-75
2021/07/22 07:07:57;;;;;;;;;21.00;18.25;;;;;24.34;43.30;101430.88;5019857;28;47014;-74
2021/07/22 07:10:23;;;;;;;;;25.75;20.50;;;;;24.38;43.39;101431.34;5020169;28;46356;-76
2021/07/22 07:12:49;;;;;;;;;23.00;20.25;;;;;24.37;42.90;101430.50;5022719;28;45684;-77
2021/07/22 07:15:15;;;;;;;;;22.75;19.25;;;;;24.37;42.94;101430.50;5022995;28;45670;-76
2021/07/22 07:17:40;;;;;;;;;21.50;20.00;;;;;24.42;43.03;101438.00;5019272;28;47471;-76
2021/07/22 07:23:27;;;;;;;;;20.50;18.75;;;;;24.46;42.67;101433.94;5015228;28;45683;-75
2021/07/22 07:25:52;;;;;;;;;19.50;18.25;;;;;24.51;42.78;101439.59;5015805;28;45880;-77
2021/07/22 07:28:18;;;;;;;;;21.50;21.25;;;;;24.53;42.79;101438.41;5015146;28;45605;-75
2021/07/22 07:30:44;;;;;;;;;21.50;19.75;;;;;24.51;42.23;101432.41;5014838;28;47035;-74
2021/07/22 07:33:09;;;;;;;;;19.25;18.00;;;;;24.27;42.40;101383.53;5016281;28;45532;-77
2021/07/22 07:38:57;;;;;;;;;19.50;18.50;;;;;24.61;42.24;101435.69;5015411;28;46152;-76
2021/07/22 07:41:22;;;;;;;;;20.50;19.00;;;;;24.63;41.85;101430.13;5014908;28;46439;-77
2021/07/22 07:43:47;;;;;;;;;16.00;14.25;;;;;24.61;41.48;101432.19;4997871;28;45955;-78
2021/07/22 07:46:13;;;;;;;;;20.00;18.00;;;;;24.65;41.33;101436.16;5016354;28;45626;-74
2021/07/22 07:48:38;;;;;;;;;19.00;16.00;;;;;24.65;41.17;101437.00;5015209;28;46608;-78
2021/07/22 07:51:05;;;;;;;;;20.25;18.00;;;;;24.67;41.45;101440.31;5015314;28;45634;-75
2021/07/22 07:53:31;;;;;;;;;14.75;13.00;;;;;24.67;41.08;101426.06;5015411;28;45785;-78
2021/07/22 07:55:56;;;;;;;;;22.75;17.50;;;;;24.63;40.93;101425.59;5015880;28;45568;-78
2021/07/22 07:58:22;;;;;;;;;19.50;17.00;;;;;24.69;41.08;101429.41;5015742;28;46374;-78
2021/07/22 08:00:48;;;;;;;;;17.00;16.00;;;;;24.74;41.10;101423.50;4997800;28;46306;-76
2021/07/22 08:03:18;;;;;;;;;18.00;16.50;;;;;24.74;41.06;101418.97;5016060;28;45538;-76
2021/07/22 08:09:06;;;;;;;;;18.25;16.75;;;;;24.82;40.71;101426.97;5015089;28;46024;-78
2021/07/22 08:11:31;;;;;;;;;17.50;17.25;;;;;24.84;40.98;101427.59;5014654;28;46465;-76
2021/07/22 08:13:57;;;;;;;;;20.75;18.25;;;;;24.85;41.05;101415.84;5015076;28;45826;-76
2021/07/22 08:16:22;;;;;;;;;19.00;17.25;;;;;24.91;40.63;101425.06;4997659;28;46007;-76
2021/07/22 08:24:55;;;;;;;;;19.00;17.00;;;;;25.07;40.99;101417.69;5015737;28;45738;-76
2021/07/22 08:27:26;;;;;;;;;19.75;16.00;;;;;25.12;40.83;101422.50;5015093;28;45837;-77
2021/07/22 08:29:51;;;;;;;;;15.75;15.75;;;;;25.12;41.03;101417.13;5015070;28;47397;-80
2021/07/22 08:32:17;;;;;;;;;17.50;16.50;;;;;25.19;40.99;101420.75;5015107;28;46882;-78
2021/07/22 08:34:42;;;;;;;;;18.25;17.25;;;;;25.21;40.97;101416.00;5014909;28;45607;-74
2021/07/22 08:37:09;;;;;;;;;18.50;17.25;;;;;25.27;40.64;101425.16;5015779;28;45685;-80
2021/07/22 08:39:43;;;;;;;;;15.25;14.75;;;;;25.32;40.64;101418.22;5015283;28;46773;-76
2021/07/22 08:42:10;;;;;;;;;16.00;15.25;;;;;25.34;40.75;101428.78;5014594;28;45931;-78
2021/07/22 08:44:36;;;;;;;;;19.75;17.25;;;;;25.35;40.94;101417.88;4997287;28;45727;-75
2021/07/22 08:47:03;;;;;;;;;18.75;17.50;;;;;25.37;40.76;101415.03;5018602;28;45824;-73
2021/07/22 08:49:29;;;;;;;;;20.25;19.25;;;;;25.45;40.53;101415.75;4999528;28;47364;-74
2021/07/22 08:51:57;;;;;;;;;22.00;18.00;;;;;25.46;40.08;101425.47;5016885;28;46983;-76
2021/07/22 08:54:25;;;;;;;;;21.00;18.75;;;;;25.48;40.20;101423.41;4998059;28;45650;-76
2021/07/22 08:56:51;;;;;;;;;19.75;16.50;;;;;25.52;39.98;101421.19;5015084;28;45753;-75
2021/07/22 08:59:20;;;;;;;;;20.00;18.00;;;;;25.50;39.64;101421.38;5014257;28;46379;-75
2021/07/22 09:01:46;;;;;;;;;19.50;19.00;;;;;25.56;40.14;101421.69;5014416;28;46251;-80
2021/07/22 09:04:12;;;;;;;;;19.00;17.50;;;;;25.62;39.77;101426.31;5014987;28;45516;-79
2021/07/22 09:10:08;;;;;;;;;16.00;14.75;;;;;25.66;39.77;101427.59;5014778;28;45759;-80
2021/07/22 09:12:49;;;;;;;;;18.00;16.50;;;;;25.67;39.92;101427.41;5014246;28;45982;-82
2021/07/22 09:15:25;;;;;;;;;19.25;18.50;;;;;25.72;39.71;101435.72;5014495;28;46096;-74
2021/07/22 09:17:52;;;;;;;;;20.50;19.00;;;;;25.69;39.71;101425.38;4996754;28;45821;-76
2021/07/22 09:20:34;;;;;;;;;19.00;17.00;;;;;25.77;39.57;101435.16;5014846;28;46264;-77
2021/07/22 09:23:02;;;;;;;;;17.25;16.25;;;;;25.78;39.45;101429.63;5014460;28;46678;-74
2021/07/22 09:25:44;;;;;;;;;16.75;15.75;;;;;25.80;39.51;101432.94;5014511;28;45543;-75
2021/07/22 09:28:14;;;;;;;;;19.00;17.00;;;;;25.84;39.66;101426.19;5014466;28;45582;-77
2021/07/22 09:30:57;;;;;;;;;17.00;17.00;;;;;25.88;39.52;101427.47;5013666;28;47330;-75
2021/07/22 09:33:39;;;;;;;;;18.25;17.00;;;;;25.89;39.70;101422.94;4996121;28;48592;-79
2021/07/22 09:36:25;;;;;;;;;16.75;15.25;;;;;25.93;39.14;101429.56;5014099;28;45662;-75
2021/07/22 09:38:51;;;;;;;;;17.75;16.00;;;;;25.96;39.02;101425.69;5000201;28;47315;-79
2021/07/22 09:41:20;;;;;;;;;18.25;16.50;;;;;25.94;39.20;101419.66;5013722;28;45747;-75
2021/07/22 09:43:47;;;;;;;;;16.75;16.50;;;;;25.96;38.95;101414.94;5013519;28;46504;-82
2021/07/22 09:46:14;;;;;;;;;16.50;15.75;;;;;25.99;39.57;101426.13;5013625;28;45555;-79
2021/07/22 09:49:06;;;;;;;;;20.75;17.00;;;;;26.01;39.27;101413.34;4996314;28;45968;-75
2021/07/22 09:51:32;;;;;;;;;16.75;15.00;;;;;26.05;38.83;101416.47;5012892;28;46498;-73
2021/07/22 09:54:09;;;;;;;;;17.75;16.00;;;;;26.10;39.39;101408.69;5012760;28;45868;-74
2021/07/22 09:56:38;;;;;;;;;19.00;17.00;;;;;26.11;38.02;101415.72;5013086;28;45639;-75
2021/07/22 09:59:05;;;;;;;;;19.00;18.25;;;;;26.08;38.96;101403.50;5012219;28;45986;-78
2021/07/22 10:01:40;;;;;;;;;19.00;17.00;;;;;26.17;38.63;101407.75;5012087;28;47608;-76
2021/07/22 10:04:07;;;;;;;;;16.50;15.75;;;;;26.16;38.76;101403.38;4995582;28;47210;-75
2021/07/22 10:06:35;;;;;;;;;17.50;16.25;;;;;26.23;38.60;101412.38;5013568;28;45817;-75
2021/07/22 10:09:02;;;;;;;;;15.25;14.25;;;;;26.22;38.74;101391.91;5013342;28;45764;-76
2021/07/22 10:11:28;;;;;;;;;20.25;14.25;;;;;26.25;38.04;101394.19;5013533;28;45797;-73
2021/07/22 10:13:53;;;;;;;;;17.25;15.75;;;;;26.28;38.44;101409.13;5011876;28;46020;-78
2021/07/22 10:16:22;;;;;;;;;17.75;15.00;;;;;26.29;38.10;101391.94;4993979;28;45647;-75
2021/07/22 10:18:49;;;;;;;;;18.00;17.00;;;;;26.33;38.12;101401.31;5015213;28;45620;-77
2021/07/22 10:21:17;;;;;;;;;18.25;15.25;;;;;26.36;38.13;101394.69;5015327;28;46535;-74
2021/07/22 10:23:43;;;;;;;;;16.50;16.50;;;;;26.38;38.26;101390.81;5017186;28;45948;-74
2021/07/22 10:26:09;;;;;;;;;16.75;14.50;;;;;26.42;38.43;101388.56;5015823;28;45670;-78
2021/07/22 10:28:37;;;;;;;;;17.00;17.00;;;;;26.43;37.86;101396.44;5014528;28;45763;-75
2021/07/22 10:31:05;;;;;;;;;15.00;14.50;;;;;26.46;38.51;101379.91;4995753;28;45912;-73
2021/07/22 10:33:34;;;;;;;;;16.75;15.50;;;;;26.52;38.78;101384.50;5013394;28;45654;-74
2021/07/22 10:35:59;;;;;;;;;16.00;13.00;;;;;26.55;38.11;101370.69;5014001;28;45560;-80
2021/07/22 10:38:40;;;;;;;;;14.25;14.00;;;;;26.46;37.17;101355.72;5013592;28;45485;-74
2021/07/22 10:41:06;;;;;;;;;14.25;13.50;;;;;26.61;38.05;101369.91;5013487;28;46413;-80
2021/07/22 10:43:41;;;;;;;;;19.25;16.25;;;;;26.64;37.52;101368.69;5012830;28;46117;-74
2021/07/22 10:46:15;;;;;;;;;14.50;13.25;;;;;26.66;37.38;101370.16;5013331;28;45644;-77
2021/07/22 10:48:43;;;;;;;;;14.25;13.50;;;;;26.67;37.85;101362.91;5013334;28;45594;-75
2021/07/22 10:51:12;;;;;;;;;16.25;14.75;;;;;26.72;37.03;101365.88;4995361;28;49176;-76
2021/07/22 10:53:51;;;;;;;;;17.25;16.25;;;;;26.73;37.25;101371.03;5016372;28;45553;-78
2021/07/22 10:56:23;;;;;;;;;15.50;14.75;;;;;26.76;37.28;101366.28;5017282;28;45573;-81
2021/07/22 10:58:55;;;;;;;;;14.75;14.75;;;;;26.76;36.74;101358.22;5017288;28;45507;-81
2021/07/22 11:01:42;;;;;;;;;14.75;14.00;;;;;26.80;36.96;101359.50;5017024;28;45540;-81
2021/07/22 11:04:30;;;;;;;;;17.75;16.00;;;;;26.83;38.02;101349.16;5017350;28;45944;-80
2021/07/22 11:07:00;;;;;;;;;14.75;13.00;;;;;26.89;37.28;101352.94;5017304;28;45641;-80
2021/07/22 11:09:48;;;;;;;;;15.50;14.00;;;;;26.94;36.85;101355.88;5017302;28;45461;-80
2021/07/22 11:12:36;;;;;;;;;14.00;12.25;;;;;26.96;36.72;101346.59;5017219;28;45592;-81
2021/07/22 11:15:05;;;;;;;;;12.50;12.00;;;;;26.94;36.90;101340.56;5017074;28;46247;-80
2021/07/22 11:17:31;;;;;;;;;14.00;13.75;;;;;26.95;37.02;101339.53;5017061;28;45722;-80
2021/07/22 11:20:20;;;;;;;;;15.25;13.50;;;;;26.93;36.98;101328.19;5017238;28;45508;-81
2021/07/22 11:22:50;;;;;;;;;14.50;14.50;;;;;27.01;37.53;101341.44;5016964;28;47677;-80
2021/07/22 11:25:17;;;;;;;;;15.75;15.75;;;;;27.07;36.33;101340.66;5017442;28;45937;-82
2021/07/22 11:27:47;;;;;;;;;16.25;14.00;;;;;27.05;36.70;101334.63;5017408;28;45574;-80
2021/07/22 11:30:15;;;;;;;;;14.75;14.25;;;;;27.11;35.83;101344.59;5017143;28;45864;-80
2021/07/22 11:32:40;;;;;;;;;13.25;13.25;;;;;27.14;37.01;101343.38;5016998;28;45593;-82
2021/07/22 11:35:06;;;;;;;;;14.50;14.50;;;;;27.18;36.78;101336.56;5017833;28;46183;-81
2021/07/22 11:37:32;;;;;;;;;16.00;14.50;;;;;27.23;37.11;101333.28;5017493;28;45735;-81
2021/07/22 11:39:58;;;;;;;;;15.75;15.00;;;;;27.29;36.87;101333.31;5017446;28;45631;-81
2021/07/22 11:42:23;;;;;;;;;16.25;16.00;;;;;27.18;36.27;101306.13;5017359;28;46079;-80
2021/07/22 11:45:06;;;;;;;;;16.25;15.50;;;;;27.36;36.58;101330.66;5021646;28;46154;-79
2021/07/22 11:47:33;;;;;;;;;15.00;15.00;;;;;27.39;36.77;101324.84;5023217;28;45473;-80
2021/07/22 11:50:00;;;;;;;;;15.75;15.75;;;;;27.43;36.28;101323.41;5022884;28;45579;-81
2021/07/22 11:52:30;;;;;;;;;16.75;15.00;;;;;27.48;37.13;101312.88;5015572;28;46587;-81
2021/07/22 11:55:08;;;;;;;;;14.75;13.25;;;;;27.51;36.55;101320.59;5016499;28;46558;-81
2021/07/22 11:57:40;;;;;;;;;15.25;15.00;;;;;27.60;36.63;101311.28;5016882;28;45530;-80
2021/07/22 12:00:22;;;;;;;;;18.75;17.25;;;;;27.61;35.47;101312.13;5016532;28;45606;-80
2021/07/22 12:02:55;;;;;;;;;13.75;12.75;;;;;27.65;36.07;101297.22;5015876;28;47246;-81
2021/07/22 12:05:25;;;;;;;;;14.75;14.00;;;;;27.68;35.89;101302.19;5016511;28;45663;-80
2021/07/22 12:07:53;;;;;;;;;14.75;14.00;;;;;27.58;35.86;101282.91;5016262;28;45760;-81
2021/07/22 12:10:29;;;;;;;;;15.50;14.25;;;;;27.47;35.83;101260.06;5016764;28;45680;-80
2021/07/22 12:13:08;;;;;;;;;19.75;16.00;;;;;27.77;35.80;101295.56;5016097;28;45655;-81
2021/07/22 12:15:34;;;;;;;;;13.75;13.75;;;;;27.77;35.44;101291.03;5016353;28;46037;-80
2021/07/22 12:17:59;;;;;;;;;15.00;15.00;;;;;27.77;35.84;101296.41;5016495;28;45674;-80
2021/07/22 12:20:26;;;;;;;;;16.75;15.50;;;;;27.82;35.69;101290.41;5016428;28;45480;-80